Time;durP1;ratioP1;P1;durP2;ratioP2;P2;SDS_P1;SDS_P2;PMS_P1;PMS_P2;Temp;Humidity;BMP_temperature;BMP_pressure;BME280_temperature;BME280_humidity;BME280_pressure;Samples;Min_cycle;Max_cycle;Signal;HPM_P1;HPM_P2
2022/10/13 00:01:48;;;;;;;11.38;7.78;;;;;;;13.28;49.83;100186.44;5108627;28;20149;-61
2022/10/13 00:04:14;;;;;;;13.05;7.82;;;;;;;13.24;49.79;100190.22;5110733;28;20123;-63
2022/10/13 00:06:41;;;;;;;17.25;8.48;;;;;;;13.21;50.19;100190.41;5111533;28;20507;-61
2022/10/13 00:09:07;;;;;;;13.38;7.80;;;;;;;13.16;50.18;100185.41;5111662;28;20090;-61
2022/10/13 00:11:34;;;;;;;14.57;7.88;;;;;;;13.14;50.30;100182.88;5111845;28;20059;-61
2022/10/13 00:14:03;;;;;;;14.45;7.75;;;;;;;13.11;50.87;100190.97;5111585;28;20097;-63
2022/10/13 00:16:31;;;;;;;15.25;8.13;;;;;;;13.11;50.52;100183.03;5110647;28;20110;-61
2022/10/13 00:18:58;;;;;;;14.85;7.93;;;;;;;13.10;50.74;100175.19;5109769;28;20048;-61
2022/10/13 00:21:26;;;;;;;15.07;8.15;;;;;;;13.11;50.89;100177.75;5111613;28;20470;-63
2022/10/13 00:23:54;;;;;;;17.17;9.00;;;;;;;13.10;50.91;100178.72;5111430;28;20086;-64
2022/10/13 00:26:23;;;;;;;12.75;8.25;;;;;;;13.08;51.37;100170.00;5111314;28;20069;-60
2022/10/13 00:28:50;;;;;;;17.02;7.60;;;;;;;13.08;50.96;100175.28;5109977;28;20472;-61
2022/10/13 00:31:20;;;;;;;13.80;7.53;;;;;;;13.07;51.02;100170.97;5111416;28;20043;-61
2022/10/13 00:33:48;;;;;;;14.55;7.75;;;;;;;13.06;51.10;100173.69;5111310;28;20566;-60
2022/10/13 00:36:15;;;;;;;14.65;8.57;;;;;;;13.05;51.28;100169.34;5111545;28;20449;-61
2022/10/13 00:38:42;;;;;;;19.38;9.38;;;;;;;13.01;51.26;100174.81;5109968;28;20078;-61
2022/10/13 00:41:09;;;;;;;19.75;8.93;;;;;;;13.00;51.41;100180.19;5111159;28;20142;-62
2022/10/13 00:43:52;;;;;;;13.10;9.27;;;;;;;12.94;52.69;100180.56;5111144;28;20044;-61
2022/10/13 00:46:21;;;;;;;14.80;8.68;;;;;;;12.96;51.58;100176.03;5110436;28;20051;-61
2022/10/13 00:48:49;;;;;;;15.38;8.38;;;;;;;12.95;51.66;100179.63;5111049;28;20453;-65
2022/10/13 00:51:21;;;;;;;11.55;8.15;;;;;;;12.93;52.49;100173.59;5110276;28;20073;-61
2022/10/13 00:53:49;;;;;;;14.25;8.63;;;;;;;12.92;51.88;100179.78;5111161;28;20064;-63
2022/10/13 00:56:18;;;;;;;17.98;9.15;;;;;;;12.89;52.10;100181.69;5111394;28;20487;-62
2022/10/13 00:58:46;;;;;;;14.57;8.55;;;;;;;12.87;51.95;100178.28;5113800;28;20051;-60
2022/10/13 01:01:13;;;;;;;12.27;8.05;;;;;;;12.87;51.91;100180.91;5113754;28;20086;-62
2022/10/13 01:03:40;;;;;;;13.32;9.63;;;;;;;12.86;52.15;100171.31;5113794;28;20207;-64
2022/10/13 01:06:07;;;;;;;14.30;9.18;;;;;;;12.85;52.33;100181.97;5114984;27;20048;-62
2022/10/13 01:08:34;;;;;;;14.95;9.02;;;;;;;12.84;52.38;100165.28;5115269;28;20063;-63
2022/10/13 01:11:16;;;;;;;13.57;9.02;;;;;;;12.79;53.41;100158.56;5115111;28;20397;-62
2022/10/13 01:13:54;;;;;;;15.48;8.40;;;;;;;12.79;53.65;100156.78;5114907;28;20052;-62
2022/10/13 01:16:29;;;;;;;12.88;9.25;;;;;;;12.80;52.33;100157.63;5113867;28;20047;-61
2022/10/13 01:19:20;;;;;;;12.40;8.82;;;;;;;12.73;53.63;100150.06;5114330;28;20086;-64
2022/10/13 01:22:30;;;;;;;16.25;8.48;;;;;;;12.72;53.78;100147.53;5114853;28;20143;-62
2022/10/13 01:25:08;;;;;;;13.70;8.55;;;;;;;12.72;53.89;100132.53;5114523;28;20082;-62
2022/10/13 01:27:45;;;;;;;17.85;9.27;;;;;;;12.75;53.63;100136.78;5114883;28;20117;-64
2022/10/13 01:30:18;;;;;;;15.80;9.45;;;;;;;12.74;53.94;100128.00;5114378;28;20052;-62
2022/10/13 01:33:02;;;;;;;15.45;9.45;;;;;;;12.78;52.92;100133.94;5114605;28;20048;-63
2022/10/13 01:35:38;;;;;;;13.50;8.57;;;;;;;12.74;54.43;100128.00;5112361;27;20056;-62
2022/10/13 01:38:13;;;;;;;15.95;9.35;;;;;;;12.76;53.94;100125.25;5114022;28;20078;-64
2022/10/13 01:40:48;;;;;;;16.52;9.70;;;;;;;12.77;54.27;100130.47;5107551;28;20074;-61
2022/10/13 01:43:15;;;;;;;13.95;9.25;;;;;;;12.80;53.44;100125.91;5113058;28;20131;-62
2022/10/13 01:45:49;;;;;;;17.10;9.55;;;;;;;12.79;54.41;100125.09;5114168;28;20052;-62
2022/10/13 01:48:16;;;;;;;12.55;8.68;;;;;;;12.82;53.75;100119.59;5113000;28;20130;-61
2022/10/13 01:50:44;;;;;;;17.58;9.93;;;;;;;12.84;53.85;100115.09;5112919;28;20096;-62
2022/10/13 01:53:13;;;;;;;13.98;8.95;;;;;;;12.86;54.25;100120.28;5112800;28;20051;-64
2022/10/13 01:55:55;;;;;;;12.02;8.55;;;;;;;12.84;55.10;100109.78;5114019;28;20130;-61
2022/10/13 01:58:23;;;;;;;15.48;9.75;;;;;;;12.90;53.99;100105.94;5113850;28;20094;-62
2022/10/13 02:01:02;;;;;;;15.18;9.70;;;;;;;12.89;55.04;100113.00;5112517;28;20480;-62
2022/10/13 02:03:42;;;;;;;17.83;10.13;;;;;;;12.89;55.08;100120.94;5112742;28;20043;-63
2022/10/13 02:06:29;;;;;;;14.15;8.90;;;;;;;12.88;54.85;100116.59;5112764;28;20104;-62
2022/10/13 02:09:09;;;;;;;17.05;9.95;;;;;;;12.90;55.42;100112.06;5091949;28;20056;-62
2022/10/13 02:11:44;;;;;;;15.73;9.20;;;;;;;12.92;54.72;100111.97;5113704;28;20066;-62
2022/10/13 02:14:17;;;;;;;16.15;9.43;;;;;;;12.92;55.21;100114.59;5113887;28;20048;-61
2022/10/13 02:16:45;;;;;;;17.45;9.60;;;;;;;12.94;54.42;100114.50;5112356;28;20071;-62
2022/10/13 02:19:15;;;;;;;16.10;9.60;;;;;;;12.93;54.90;100111.00;5113135;28;20055;-62
2022/10/13 02:21:42;;;;;;;17.10;9.63;;;;;;;12.94;54.51;100114.50;5113611;28;20112;-61
2022/10/13 02:24:09;;;;;;;16.73;9.88;;;;;;;12.94;54.63;100111.88;5112356;28;20043;-61
2022/10/13 02:26:36;;;;;;;16.85;10.02;;;;;;;12.94;54.83;100114.50;5112075;28;20051;-64
2022/10/13 02:29:11;;;;;;;14.77;10.18;;;;;;;12.91;56.35;100107.63;5113627;28;20118;-62
2022/10/13 02:31:39;;;;;;;12.75;9.55;;;;;;;12.95;55.03;100087.13;5113224;28;20130;-62
2022/10/13 02:34:06;;;;;;;14.32;8.63;;;;;;;12.96;55.16;100097.63;5113813;28;20106;-64
2022/10/13 02:36:33;;;;;;;14.45;9.57;;;;;;;12.98;55.33;100097.53;5113097;28;20048;-61
2022/10/13 02:39:00;;;;;;;17.02;9.77;;;;;;;12.99;55.25;100100.09;5112001;28;20051;-62
2022/10/13 02:41:27;;;;;;;16.92;10.63;;;;;;;13.01;55.29;100092.91;5113106;28;20051;-61
2022/10/13 02:43:53;;;;;;;18.60;9.98;;;;;;;13.01;55.33;100097.34;5113083;28;20548;-61
2022/10/13 02:46:20;;;;;;;18.92;10.43;;;;;;;13.01;55.11;100098.19;5112831;28;20447;-64
2022/10/13 02:48:47;;;;;;;14.90;9.77;;;;;;;13.01;55.34;100098.19;5111791;28;20393;-64
2022/10/13 02:51:13;;;;;;;17.10;10.25;;;;;;;13.02;55.61;100101.69;5113063;28;20154;-61
2022/10/13 02:53:40;;;;;;;15.75;10.05;;;;;;;13.03;55.69;100106.00;5113144;28;20052;-64
2022/10/13 02:56:07;;;;;;;17.88;10.43;;;;;;;13.03;55.55;100103.38;5112855;28;20051;-61
2022/10/13 02:58:34;;;;;;;15.52;9.38;;;;;;;13.02;55.80;100099.88;5112431;28;20083;-62
2022/10/13 03:01:09;;;;;;;19.95;10.82;;;;;;;13.03;57.22;100106.00;5112496;28;20056;-63
2022/10/13 03:03:35;;;;;;;20.42;10.57;;;;;;;13.06;56.00;100103.19;5112971;28;20051;-62
2022/10/13 03:06:03;;;;;;;20.05;10.60;;;;;;;13.08;56.12;100093.38;5112638;28;20080;-60
2022/10/13 03:08:32;;;;;;;17.85;10.30;;;;;;;13.11;56.75;100090.53;5112527;28;20098;-61
2022/10/13 03:10:58;;;;;;;19.33;10.82;;;;;;;13.15;56.29;100092.03;5112589;28;20083;-62
2022/10/13 03:13:25;;;;;;;15.75;10.65;;;;;;;13.19;56.16;100089.22;5112529;28;20109;-62
2022/10/13 03:15:52;;;;;;;12.85;9.48;;;;;;;13.20;56.29;100088.25;5112409;28;20055;-62
2022/10/13 03:18:18;;;;;;;13.35;8.73;;;;;;;13.23;56.23;100086.25;5112396;28;20131;-61
2022/10/13 03:20:54;;;;;;;16.02;10.18;;;;;;;13.22;57.56;100087.22;5111996;28;20561;-62
2022/10/13 03:23:21;;;;;;;18.38;10.63;;;;;;;13.28;56.09;100089.47;5112400;28;20043;-62
2022/10/13 03:25:47;;;;;;;18.92;10.13;;;;;;;13.29;56.07;100077.97;5112020;28;20090;-62
2022/10/13 03:28:14;;;;;;;17.60;10.60;;;;;;;13.32;56.14;100074.28;5112275;28;20043;-62
2022/10/13 03:30:41;;;;;;;14.88;10.20;;;;;;;13.34;56.04;100082.13;5111002;28;20090;-61
2022/10/13 03:33:07;;;;;;;20.33;11.20;;;;;;;13.35;56.18;100079.34;5112134;28;20058;-63
2022/10/13 03:35:35;;;;;;;19.02;11.30;;;;;;;13.36;56.28;100069.63;5112232;28;20055;-62
2022/10/13 03:38:01;;;;;;;14.98;10.30;;;;;;;13.35;56.16;100068.78;5111859;28;20044;-62
2022/10/13 03:40:28;;;;;;;15.38;10.70;;;;;;;13.35;56.21;100068.78;5111806;28;20048;-62
2022/10/13 03:42:55;;;;;;;19.73;11.32;;;;;;;13.34;56.50;100067.09;5112204;28;20075;-62
2022/10/13 03:45:21;;;;;;;19.58;11.25;;;;;;;13.35;56.43;100068.78;5112035;28;20051;-63
2022/10/13 03:47:48;;;;;;;15.07;10.95;;;;;;;13.35;56.32;100055.56;5111901;28;20047;-63
2022/10/13 03:50:15;;;;;;;19.10;11.52;;;;;;;13.35;56.56;100063.47;5111715;28;20461;-61
2022/10/13 03:52:41;;;;;;;19.00;11.10;;;;;;;13.35;56.50;100068.78;5111742;28;20138;-63
2022/10/13 03:55:08;;;;;;;19.25;11.60;;;;;;;13.34;56.52;100055.69;5111998;28;20098;-61
2022/10/13 03:57:34;;;;;;;19.08;12.00;;;;;;;13.34;56.64;100056.50;5111924;28;20079;-63
2022/10/13 04:00:02;;;;;;;18.02;12.48;;;;;;;13.34;56.53;100053.84;5111612;28;20044;-62
2022/10/13 04:02:29;;;;;;;18.88;12.07;;;;;;;13.33;56.71;100051.31;5111727;28;20443;-62
2022/10/13 04:04:55;;;;;;;20.58;11.50;;;;;;;13.32;56.55;100052.25;5111810;28;20475;-65
2022/10/13 04:07:22;;;;;;;18.25;11.63;;;;;;;13.33;57.06;100051.31;5110495;28;20069;-64
2022/10/13 04:09:48;;;;;;;19.98;11.25;;;;;;;13.33;56.79;100048.66;5111323;28;20553;-62
2022/10/13 04:12:15;;;;;;;18.70;11.45;;;;;;;13.33;56.90;100043.38;5110337;28;20075;-62
2022/10/13 04:14:46;;;;;;;17.88;11.43;;;;;;;13.34;56.81;100043.28;5111963;28;20416;-62
2022/10/13 04:17:13;;;;;;;21.30;10.95;;;;;;;13.34;56.84;100037.16;5110302;28;20176;-62
2022/10/13 04:19:39;;;;;;;17.90;11.07;;;;;;;13.34;56.84;100038.00;5111491;28;20129;-61
2022/10/13 04:22:06;;;;;;;18.23;11.50;;;;;;;13.34;57.10;100027.41;5111307;28;20090;-63
2022/10/13 04:24:33;;;;;;;17.17;11.30;;;;;;;13.36;56.82;100027.31;5111491;28;20380;-61
2022/10/13 04:26:59;;;;;;;17.67;11.10;;;;;;;13.36;57.05;100030.84;5111783;28;20083;-61
2022/10/13 04:29:26;;;;;;;18.95;10.95;;;;;;;13.37;57.06;100023.72;5106860;28;20403;-61
2022/10/13 04:31:52;;;;;;;16.05;11.00;;;;;;;13.38;57.10;100014.88;5111420;28;20089;-64
2022/10/13 04:34:19;;;;;;;16.45;10.82;;;;;;;13.38;57.32;100022.81;5106663;28;20130;-64
2022/10/13 04:36:49;;;;;;;20.58;10.82;;;;;;;13.36;57.62;100022.91;5114511;28;20043;-62
2022/10/13 04:39:15;;;;;;;17.58;10.82;;;;;;;13.37;57.34;100024.59;5115216;28;20139;-61
2022/10/13 04:41:42;;;;;;;18.75;10.63;;;;;;;13.36;57.33;100017.63;5115618;28;20048;-63
2022/10/13 04:44:08;;;;;;;20.50;11.30;;;;;;;13.37;57.35;100015.81;5115420;28;20079;-61
2022/10/13 04:46:35;;;;;;;16.70;11.45;;;;;;;13.37;57.45;100016.66;5115508;28;20166;-61
2022/10/13 04:49:02;;;;;;;16.92;10.88;;;;;;;13.37;57.17;100013.16;5114975;28;20561;-62
2022/10/13 04:51:28;;;;;;;16.13;10.90;;;;;;;13.37;57.48;100013.16;5115592;28;20135;-61
2022/10/13 04:53:57;;;;;;;18.05;11.65;;;;;;;13.37;57.65;100010.50;5115366;28;20478;-61
2022/10/13 04:56:24;;;;;;;14.38;10.82;;;;;;;13.37;57.45;100013.16;5114132;28;20120;-62
2022/10/13 04:58:51;;;;;;;21.52;11.18;;;;;;;13.36;57.64;100014.09;5113709;28;20101;-63
2022/10/13 05:01:21;;;;;;;19.65;11.23;;;;;;;13.35;57.78;100020.34;5115130;28;20079;-62
2022/10/13 05:03:55;;;;;;;20.90;10.38;;;;;;;13.33;58.72;100017.81;5114966;28;20138;-63
2022/10/13 05:06:25;;;;;;;18.27;10.25;;;;;;;13.35;57.88;100010.59;5114033;28;20048;-62
2022/10/13 05:08:51;;;;;;;15.02;10.48;;;;;;;13.36;57.57;100009.69;5114935;28;20138;-62
2022/10/13 05:11:21;;;;;;;14.13;10.43;;;;;;;13.37;57.70;99997.28;5115079;28;20094;-63
2022/10/13 05:13:48;;;;;;;15.23;10.27;;;;;;;13.36;57.69;99992.97;5114796;28;20051;-65
2022/10/13 05:16:17;;;;;;;19.02;10.32;;;;;;;13.35;57.99;100005.31;5114821;28;20134;-61
2022/10/13 05:18:44;;;;;;;14.73;9.65;;;;;;;13.35;57.74;100005.31;5114696;28;20083;-62
2022/10/13 05:21:12;;;;;;;14.27;9.88;;;;;;;13.34;57.78;99993.06;5113387;28;20568;-64
2022/10/13 05:23:39;;;;;;;14.55;9.95;;;;;;;13.34;57.80;99979.84;5113423;28;20084;-61
2022/10/13 05:26:09;;;;;;;19.23;10.57;;;;;;;13.33;58.47;99988.72;5113699;28;20530;-61
2022/10/13 05:28:36;;;;;;;16.65;10.80;;;;;;;13.34;57.95;99981.66;5111986;28;20047;-63
2022/10/13 05:31:20;;;;;;;16.10;10.95;;;;;;;13.27;58.81;99976.75;5112272;28;20044;-61
2022/10/13 05:33:47;;;;;;;18.10;11.15;;;;;;;13.32;57.94;99991.47;5112255;28;20453;-62
2022/10/13 05:36:20;;;;;;;16.73;10.48;;;;;;;13.29;58.79;99981.94;5112364;28;20055;-64
2022/10/13 05:38:51;;;;;;;17.42;10.18;;;;;;;13.29;58.96;99990.72;5112956;28;20047;-62
2022/10/13 05:41:19;;;;;;;19.77;10.27;;;;;;;13.29;58.32;99990.72;5112755;28;20055;-64
2022/10/13 05:43:46;;;;;;;17.35;10.95;;;;;;;13.30;58.19;99988.91;5111775;28;20112;-62
2022/10/13 05:46:13;;;;;;;17.45;11.02;;;;;;;13.29;58.26;99981.94;5112879;28;20059;-62
2022/10/13 05:48:40;;;;;;;20.85;11.00;;;;;;;13.29;58.22;99980.16;5112468;28;20698;-60
2022/10/13 05:51:14;;;;;;;15.18;10.27;;;;;;;13.26;59.66;99998.84;5112369;28;20043;-63
2022/10/13 05:53:46;;;;;;;21.00;10.70;;;;;;;13.28;59.35;99990.81;5112112;28;20396;-61
2022/10/13 05:56:24;;;;;;;20.98;11.75;;;;;;;13.28;59.29;99983.72;5113408;28;20074;-65
2022/10/13 05:58:53;;;;;;;;;;;;;;;13.29;58.95;99984.56;5112034;28;20519;-61
2022/10/13 06:01:24;;;;;;;15.10;9.77;;;;;;;13.32;58.79;99972.94;5109797;28;19919;-63
2022/10/13 06:03:53;;;;;;;16.60;10.43;;;;;;;13.30;58.82;99975.69;5111258;28;20089;-63
2022/10/13 06:06:22;;;;;;;20.33;11.70;;;;;;;13.29;58.71;99988.09;5112700;28;20039;-64
2022/10/13 06:08:54;;;;;;;20.02;11.98;;;;;;;13.29;58.71;99968.72;5111787;28;20048;-62
2022/10/13 06:11:21;;;;;;;17.27;10.63;;;;;;;13.31;58.78;99963.34;5112602;28;20752;-62
2022/10/13 06:13:47;;;;;;;16.52;10.48;;;;;;;13.31;59.01;99966.84;5112800;28;20116;-61
2022/10/13 06:16:14;;;;;;;20.05;10.73;;;;;;;13.31;58.97;99977.41;5112424;28;20051;-61
2022/10/13 06:18:40;;;;;;;15.07;10.77;;;;;;;13.32;58.90;99976.47;5112398;28;20047;-61
2022/10/13 06:21:07;;;;;;;21.33;10.75;;;;;;;13.33;58.92;99983.44;5112468;28;20111;-63
2022/10/13 06:23:33;;;;;;;17.40;11.07;;;;;;;13.36;59.04;99977.94;5112496;28;20044;-61
2022/10/13 06:26:00;;;;;;;18.35;10.52;;;;;;;13.38;59.33;99968.09;5073399;28;1120295;-61
2022/10/13 06:28:27;;;;;;;14.90;10.82;;;;;;;13.40;59.37;99966.22;5113513;28;20082;-61
2022/10/13 06:30:55;;;;;;;19.33;11.85;;;;;;;13.44;59.37;99966.88;5113305;28;20083;-62
2022/10/13 06:33:23;;;;;;;16.33;10.82;;;;;;;13.46;59.47;99959.66;5112864;28;20085;-62
2022/10/13 06:35:51;;;;;;;16.77;11.05;;;;;;;13.49;59.76;99963.97;5111328;28;20108;-63
2022/10/13 06:38:18;;;;;;;16.38;11.52;;;;;;;13.53;59.37;99962.81;5112422;28;20096;-63
2022/10/13 06:40:45;;;;;;;15.43;10.98;;;;;;;13.56;59.35;99965.22;5112284;28;20055;-62
2022/10/13 06:43:11;;;;;;;18.60;10.65;;;;;;;13.59;59.40;99964.19;5112784;27;20116;-62
2022/10/13 06:45:38;;;;;;;16.33;10.60;;;;;;;13.59;59.37;99970.31;5113058;28;20138;-62
2022/10/13 06:48:05;;;;;;;18.45;11.35;;;;;;;13.63;59.01;99976.25;5112657;28;20510;-61
2022/10/13 06:50:31;;;;;;;15.00;11.15;;;;;;;13.64;59.49;99986.72;5113167;28;20064;-65
2022/10/13 06:52:58;;;;;;;16.05;10.68;;;;;;;13.65;59.31;99979.66;5113180;28;20087;-62
2022/10/13 06:55:25;;;;;;;18.88;10.75;;;;;;;13.67;59.32;99975.09;5112031;28;20086;-63
2022/10/13 06:57:52;;;;;;;16.90;10.77;;;;;;;13.67;59.32;99983.91;5112865;28;20090;-62
2022/10/13 07:00:18;;;;;;;15.65;11.23;;;;;;;13.69;59.29;99978.50;5112543;28;20136;-61
2022/10/13 07:02:49;;;;;;;14.98;10.07;;;;;;;13.69;59.83;99973.22;5112551;28;20384;-61
2022/10/13 07:05:15;;;;;;;14.05;10.52;;;;;;;13.73;59.46;99984.44;5111706;28;20645;-60
2022/10/13 07:07:42;;;;;;;14.43;10.65;;;;;;;13.73;59.32;99965.91;5112881;28;20044;-62
2022/10/13 07:10:09;;;;;;;13.88;10.30;;;;;;;13.74;59.29;99972.88;5112445;28;20094;-61
2022/10/13 07:12:35;;;;;;;17.38;10.07;;;;;;;13.76;59.32;99973.66;5112694;28;20051;-62
2022/10/13 07:15:02;;;;;;;21.38;10.88;;;;;;;13.79;59.42;99984.00;5112534;28;20047;-64
2022/10/13 07:17:29;;;;;;;17.95;10.80;;;;;;;13.79;59.43;99982.22;5112733;28;20071;-63
2022/10/13 07:19:55;;;;;;;15.48;10.32;;;;;;;13.81;59.65;99980.34;5112520;27;20059;-62
2022/10/13 07:22:23;;;;;;;15.30;10.00;;;;;;;13.83;59.45;99982.84;5112420;28;20039;-61
2022/10/13 07:24:50;;;;;;;15.63;10.05;;;;;;;13.85;59.71;99978.31;5112308;28;20048;-63
2022/10/13 07:27:17;;;;;;;17.92;10.70;;;;;;;13.88;59.41;99980.78;5112175;28;20104;-61
2022/10/13 07:29:43;;;;;;;19.63;11.30;;;;;;;13.90;59.54;99986.78;5112028;28;20087;-60
2022/10/13 07:32:10;;;;;;;15.43;10.93;;;;;;;13.95;59.67;99981.19;5110966;28;20091;-60
2022/10/13 07:34:36;;;;;;;18.23;11.68;;;;;;;13.97;59.67;99984.56;5112141;28;20055;-63
2022/10/13 07:37:06;;;;;;;18.80;10.60;;;;;;;13.99;60.10;99987.13;5112356;28;20155;-62
2022/10/13 07:39:33;;;;;;;15.52;10.25;;;;;;;14.04;59.54;99979.72;5111493;28;20055;-62
2022/10/13 07:41:59;;;;;;;18.98;11.30;;;;;;;14.08;59.78;99981.19;5111737;28;20112;-61
2022/10/13 07:44:26;;;;;;;17.45;11.32;;;;;;;14.12;59.66;99977.38;5111990;28;20081;-61
2022/10/13 07:46:53;;;;;;;14.88;10.82;;;;;;;14.15;59.64;99985.13;5112193;28;20052;-64
2022/10/13 07:49:19;;;;;;;15.65;11.25;;;;;;;14.18;59.37;99981.41;5112088;28;20120;-62
2022/10/13 07:51:46;;;;;;;18.35;11.77;;;;;;;14.20;59.63;99972.41;5111978;28;20067;-61
2022/10/13 07:54:13;;;;;;;18.60;10.90;;;;;;;14.22;59.54;99980.25;5111932;28;20047;-62
2022/10/13 07:56:40;;;;;;;15.88;11.20;;;;;;;14.24;59.53;99980.16;5111807;28;20130;-62
2022/10/13 07:59:07;;;;;;;14.90;10.75;;;;;;;14.26;59.55;99975.59;5110461;28;20079;-61
2022/10/13 08:01:33;;;;;;;14.90;10.45;;;;;;;14.28;59.78;99974.53;5111703;28;20130;-61
2022/10/13 08:04:00;;;;;;;16.95;10.88;;;;;;;14.31;59.58;99976.97;5111815;28;20089;-61
2022/10/13 08:06:27;;;;;;;19.90;10.82;;;;;;;14.36;59.75;99974.00;5111749;28;20535;-60
2022/10/13 08:08:53;;;;;;;14.27;10.07;;;;;;;14.39;59.55;99975.59;5111603;28;20054;-62
2022/10/13 08:11:20;;;;;;;19.00;11.43;;;;;;;14.43;59.64;99971.78;5111582;28;20047;-62
2022/10/13 08:13:49;;;;;;;19.98;11.85;;;;;;;14.46;59.59;99980.34;5111652;28;20043;-61
2022/10/13 08:16:16;;;;;;;19.60;11.07;;;;;;;14.51;59.40;99979.19;5110475;28;20547;-63
2022/10/13 08:18:43;;;;;;;14.88;11.00;;;;;;;14.54;59.57;99979.81;5110178;28;20101;-63
2022/10/13 08:21:18;;;;;;;17.92;11.27;;;;;;;14.56;60.19;99982.34;5111719;28;20051;-62
2022/10/13 08:24:06;;;;;;;16.45;9.82;;;;;;;14.61;59.33;99980.22;5110479;28;20134;-62
2022/10/13 08:26:33;;;;;;;16.08;10.60;;;;;;;14.64;59.51;99982.66;5110391;28;20052;-61
2022/10/13 08:28:59;;;;;;;17.58;10.35;;;;;;;14.67;59.42;99976.28;5109905;28;20087;-61
2022/10/13 08:31:46;;;;;;;20.40;10.73;;;;;;;14.71;59.58;99973.34;5111439;28;20056;-61
2022/10/13 08:34:12;;;;;;;15.77;9.98;;;;;;;14.79;59.73;99974.59;5111385;28;20443;-61
2022/10/13 08:36:39;;;;;;;19.02;10.70;;;;;;;14.85;59.75;99971.53;5110381;28;20475;-61
2022/10/13 08:39:06;;;;;;;17.20;10.63;;;;;;;14.92;59.81;99980.72;5111190;28;20083;-63
2022/10/13 08:41:38;;;;;;;19.67;10.98;;;;;;;14.98;59.79;99975.00;5111565;28;20681;-62
2022/10/13 08:44:29;;;;;;;15.90;10.90;;;;;;;15.03;59.91;99982.59;5110305;28;20075;-62
2022/10/13 08:47:34;;;;;;;17.48;10.90;;;;;;;15.15;58.90;99980.03;5111442;28;20069;-62
2022/10/13 08:50:12;;;;;;;17.38;11.15;;;;;;;15.14;59.37;99981.81;5111228;28;20051;-61
2022/10/13 08:52:52;;;;;;;18.92;11.35;;;;;;;15.16;59.55;99974.59;5111256;28;20047;-63
2022/10/13 08:55:26;;;;;;;18.40;10.85;;;;;;;15.20;59.21;99972.56;5110256;28;20062;-64
2022/10/13 08:57:53;;;;;;;14.55;10.23;;;;;;;15.23;59.06;99981.16;5110301;28;20069;-63
2022/10/13 09:00:20;;;;;;;18.08;10.70;;;;;;;15.26;58.95;99972.13;5111179;28;20086;-62
2022/10/13 09:02:47;;;;;;;17.70;11.02;;;;;;;15.29;59.12;99971.06;5111084;28;20083;-66
2022/10/13 09:05:56;;;;;;;17.83;11.55;;;;;;;15.29;59.46;99971.06;5111049;28;20052;-66
2022/10/13 09:08:27;;;;;;;15.43;10.30;;;;;;;15.36;59.01;99959.88;5090943;28;20055;-64
2022/10/13 09:10:53;;;;;;;14.68;10.80;;;;;;;15.39;59.19;99966.75;5109882;28;20052;-61
2022/10/13 09:13:20;;;;;;;13.20;10.85;;;;;;;15.44;59.08;99967.25;5111069;28;20086;-61
2022/10/13 09:15:51;;;;;;;20.75;11.43;;;;;;;15.51;59.20;99959.69;5111040;28;20051;-64
2022/10/13 09:18:17;;;;;;;15.63;11.10;;;;;;;15.56;59.03;99970.81;5111282;28;20051;-61
2022/10/13 09:20:44;;;;;;;18.08;10.38;;;;;;;15.63;58.92;99958.78;5114896;28;20068;-61
2022/10/13 09:23:21;;;;;;;19.02;10.45;;;;;;;15.70;59.09;99960.97;5114903;28;20043;-65
2022/10/13 09:25:50;;;;;;;18.48;10.65;;;;;;;15.76;59.10;99961.38;5113672;28;20044;-62
2022/10/13 09:28:27;;;;;;;18.55;10.32;;;;;;;15.83;59.38;99968.84;5113311;28;20051;-63
2022/10/13 09:31:02;;;;;;;17.02;10.25;;;;;;;15.93;59.06;99958.38;5114803;28;20051;-61
2022/10/13 09:33:32;;;;;;;15.40;10.35;;;;;;;16.00;58.74;99949.84;5114577;28;20101;-61
2022/10/13 09:35:59;;;;;;;14.75;10.25;;;;;;;16.08;58.59;99954.59;5113293;28;20113;-63
2022/10/13 09:38:26;;;;;;;15.68;9.60;;;;;;;16.16;58.77;99954.00;5114379;28;20048;-61
2022/10/13 09:41:08;;;;;;;21.50;10.02;;;;;;;16.20;58.99;99963.41;5113038;28;20051;-65
2022/10/13 09:43:44;;;;;;;18.20;10.38;;;;;;;16.28;58.82;99960.16;5114467;28;20688;-61
2022/10/13 09:46:12;;;;;;;13.63;9.93;;;;;;;16.36;58.86;99943.59;5114423;28;20179;-62
2022/10/13 09:48:44;;;;;;;14.88;10.82;;;;;;;16.45;58.33;99948.19;5114283;27;20052;-63
2022/10/13 09:51:31;;;;;;;19.40;10.73;;;;;;;16.48;58.34;99945.28;5112796;28;20048;-65
2022/10/13 09:53:58;;;;;;;14.57;10.27;;;;;;;16.60;58.12;99945.31;5112991;28;20713;-63
2022/10/13 09:56:32;;;;;;;21.15;10.88;;;;;;;16.65;58.00;99932.50;5112963;28;20047;-61
2022/10/13 09:59:05;;;;;;;17.85;10.18;;;;;;;16.72;58.14;99933.69;5112682;28;20090;-61
2022/10/13 10:01:37;;;;;;;22.85;11.45;;;;;;;16.82;58.15;99940.94;5112699;28;20705;-61
2022/10/13 10:04:09;;;;;;;18.33;9.90;;;;;;;16.89;57.75;99942.09;5113097;28;20767;-62
2022/10/13 10:06:38;;;;;;;17.60;10.13;;;;;;;16.97;57.72;99947.63;5112707;28;20055;-62
2022/10/13 10:09:26;;;;;;;14.68;9.68;;;;;;;17.00;57.56;99942.09;5113784;28;20090;-62
2022/10/13 10:11:56;;;;;;;18.77;10.00;;;;;;;17.09;57.24;99939.69;5112652;28;20048;-61
2022/10/13 10:14:26;;;;;;;18.27;10.07;;;;;;;17.13;57.20;99941.13;5114100;28;20079;-62
2022/10/13 10:17:06;;;;;;;16.35;10.25;;;;;;;17.15;56.87;99940.03;5112606;28;20111;-62
2022/10/13 10:19:51;;;;;;;19.08;10.57;;;;;;;17.18;56.58;99936.25;5113499;28;20561;-63
2022/10/13 10:22:41;;;;;;;15.02;9.35;;;;;;;17.19;56.63;99945.91;5113633;28;20445;-64
2022/10/13 10:25:36;;;;;;;16.48;9.77;;;;;;;17.19;56.37;99932.63;5113975;28;20097;-63
2022/10/13 10:28:09;;;;;;;13.75;9.20;;;;;;;17.22;56.16;99931.53;5113212;28;20052;-69
2022/10/13 10:31:02;;;;;;;13.95;9.43;;;;;;;17.19;56.40;99941.47;5112193;28;20100;-63
2022/10/13 10:33:43;;;;;;;16.25;9.07;;;;;;;17.17;56.52;99937.25;5110463;28;20101;-61
2022/10/13 10:36:20;;;;;;;12.77;8.95;;;;;;;17.14;56.37;99930.34;5112349;28;20096;-62
2022/10/13 10:38:54;;;;;;;14.05;9.18;;;;;;;17.14;56.33;99937.47;5113145;28;20050;-65
2022/10/13 10:41:37;;;;;;;16.42;9.02;;;;;;;17.09;56.44;99931.69;5113198;28;20043;-64
2022/10/13 10:44:09;;;;;;;13.85;8.90;;;;;;;17.13;56.43;99936.66;5112340;28;20075;-61
2022/10/13 10:46:43;;;;;;;21.77;10.50;;;;;;;17.12;56.53;99939.44;5113045;28;20047;-62
2022/10/13 10:49:15;;;;;;;14.82;9.32;;;;;;;17.10;56.73;99938.69;5111748;28;20099;-67
2022/10/13 10:51:43;;;;;;;17.27;8.98;;;;;;;17.11;56.38;99929.75;5112814;28;20048;-63
2022/10/13 10:54:16;;;;;;;13.95;8.52;;;;;;;17.08;56.97;99925.53;5111911;28;20043;-61
2022/10/13 10:56:54;;;;;;;15.73;9.82;;;;;;;17.06;56.59;99925.69;5113067;28;20461;-61
2022/10/13 10:59:43;;;;;;;14.13;8.95;;;;;;;17.10;56.83;99920.94;5111654;28;20480;-63
2022/10/13 11:02:42;;;;;;;15.80;10.15;;;;;;;17.08;56.66;99917.53;5113282;28;20055;-62
2022/10/13 11:05:09;;;;;;;13.98;8.85;;;;;;;17.15;56.33;99909.91;5111663;28;20056;-62
2022/10/13 11:07:38;;;;;;;14.50;9.27;;;;;;;17.14;56.38;99902.91;5112685;28;20043;-63
2022/10/13 11:10:20;;;;;;;15.15;9.57;;;;;;;17.13;56.63;99907.41;5112580;28;20051;-62
2022/10/13 11:13:13;;;;;;;16.83;9.77;;;;;;;17.13;56.43;99904.75;5111450;28;20096;-62
2022/10/13 11:15:42;;;;;;;;;;;;;;;17.19;56.22;99898.03;5113167;28;20109;-62
2022/10/13 11:18:46;;;;;;;13.45;8.65;;;;;;;17.19;56.08;99906.03;5112290;28;19924;-63
2022/10/13 11:21:13;;;;;;;14.55;9.10;;;;;;;17.22;56.20;99895.13;5112547;28;20117;-61
2022/10/13 11:23:46;;;;;;;17.35;9.88;;;;;;;17.20;56.45;99897.09;5112397;28;20484;-62
2022/10/13 11:26:40;;;;;;;14.05;9.15;;;;;;;17.18;56.38;99889.25;5111165;28;20105;-61
2022/10/13 11:29:17;;;;;;;14.85;9.98;;;;;;;17.22;56.28;99886.31;5101057;28;20132;-62
2022/10/13 11:31:53;;;;;;;15.02;9.82;;;;;;;17.26;56.58;99887.72;5111293;28;20082;-64
2022/10/13 11:34:28;;;;;;;13.68;9.07;;;;;;;17.30;56.53;99876.72;5112288;28;20090;-62